sensor_id;sensor_type;location;lat;lon;timestamp;temperature;humidity
12948;DHT22;6539;49.476;8.484;2024-02-28T00:02:07;7.20;99.90
12948;DHT22;6539;49.476;8.484;2024-02-28T00:04:53;7.20;99.90
12948;DHT22;6539;49.476;8.484;2024-02-28T00:07:41;7.10;99.90
12948;DHT22;6539;49.476;8.484;2024-02-28T00:10:27;7.10;99.90
12948;DHT22;6539;49.476;8.484;2024-02-28T00:13:17;7.10;99.90
12948;DHT22;6539;49.476;8.484;2024-02-28T00:16:03;7.00;99.90
12948;DHT22;6539;49.476;8.484;2024-02-28T00:18:52;7.00;99.90
12948;DHT22;6539;49.476;8.484;2024-02-28T00:21:44;6.90;99.90
12948;DHT22;6539;49.476;8.484;2024-02-28T00:24:30;6.90;99.90
12948;DHT22;6539;49.476;8.484;2024-02-28T00:27:16;6.90;99.90
12948;DHT22;6539;49.476;8.484;2024-02-28T00:30:03;6.90;99.90
12948;DHT22;6539;49.476;8.484;2024-02-28T00:32:55;6.90;99.90
12948;DHT22;6539;49.476;8.484;2024-02-28T00:35:45;6.80;99.90
12948;DHT22;6539;49.476;8.484;2024-02-28T00:38:31;6.80;99.90
12948;DHT22;6539;49.476;8.484;2024-02-28T00:41:17;6.80;99.90
12948;DHT22;6539;49.476;8.484;2024-02-28T00:44:03;6.80;99.90
12948;DHT22;6539;49.476;8.484;2024-02-28T00:46:49;6.70;99.90
12948;DHT22;6539;49.476;8.484;2024-02-28T00:49:36;6.70;99.90
12948;DHT22;6539;49.476;8.484;2024-02-28T00:52:24;6.70;99.90
12948;DHT22;6539;49.476;8.484;2024-02-28T00:55:13;6.70;99.90
12948;DHT22;6539;49.476;8.484;2024-02-28T00:58:04;6.70;99.90
12948;DHT22;6539;49.476;8.484;2024-02-28T01:00:50;6.70;99.90
12948;DHT22;6539;49.476;8.484;2024-02-28T01:03:36;6.60;99.90
12948;DHT22;6539;49.476;8.484;2024-02-28T01:06:26;6.60;99.90
12948;DHT22;6539;49.476;8.484;2024-02-28T01:09:12;6.50;99.90
12948;DHT22;6539;49.476;8.484;2024-02-28T01:12:00;6.50;99.90
12948;DHT22;6539;49.476;8.484;2024-02-28T01:14:46;6.60;99.90
12948;DHT22;6539;49.476;8.484;2024-02-28T01:17:35;6.60;99.90
12948;DHT22;6539;49.476;8.484;2024-02-28T01:20:21;6.60;99.90
12948;DHT22;6539;49.476;8.484;2024-02-28T01:23:10;6.60;99.90
12948;DHT22;6539;49.476;8.484;2024-02-28T01:25:58;6.50;99.90
12948;DHT22;6539;49.476;8.484;2024-02-28T01:28:44;6.50;99.90
12948;DHT22;6539;49.476;8.484;2024-02-28T01:31:33;6.40;99.90
12948;DHT22;6539;49.476;8.484;2024-02-28T01:34:21;6.40;99.90
12948;DHT22;6539;49.476;8.484;2024-02-28T01:37:12;6.40;99.90
12948;DHT22;6539;49.476;8.484;2024-02-28T01:40:02;6.40;99.90
12948;DHT22;6539;49.476;8.484;2024-02-28T01:42:50;6.40;99.90
12948;DHT22;6539;49.476;8.484;2024-02-28T01:45:39;6.30;99.90
12948;DHT22;6539;49.476;8.484;2024-02-28T01:48:27;6.30;99.90
12948;DHT22;6539;49.476;8.484;2024-02-28T01:51:16;6.30;99.90
12948;DHT22;6539;49.476;8.484;2024-02-28T01:54:03;6.30;99.90
12948;DHT22;6539;49.476;8.484;2024-02-28T01:56:49;6.30;99.90
12948;DHT22;6539;49.476;8.484;2024-02-28T01:59:38;6.20;99.90
12948;DHT22;6539;49.476;8.484;2024-02-28T02:02:24;6.20;99.90
12948;DHT22;6539;49.476;8.484;2024-02-28T02:05:10;6.20;99.90
12948;DHT22;6539;49.476;8.484;2024-02-28T02:08:04;6.10;99.90
12948;DHT22;6539;49.476;8.484;2024-02-28T02:10:53;6.10;99.90
12948;DHT22;6539;49.476;8.484;2024-02-28T02:13:51;6.10;99.90
12948;DHT22;6539;49.476;8.484;2024-02-28T02:16:37;6.10;99.90
12948;DHT22;6539;49.476;8.484;2024-02-28T02:19:23;6.10;99.90
12948;DHT22;6539;49.476;8.484;2024-02-28T02:22:13;6.10;99.90
12948;DHT22;6539;49.476;8.484;2024-02-28T02:25:04;6.00;99.90
12948;DHT22;6539;49.476;8.484;2024-02-28T02:27:51;6.00;99.90
12948;DHT22;6539;49.476;8.484;2024-02-28T02:30:38;5.90;99.90
12948;DHT22;6539;49.476;8.484;2024-02-28T02:33:27;5.90;99.90
12948;DHT22;6539;49.476;8.484;2024-02-28T02:36:15;5.90;99.90
12948;DHT22;6539;49.476;8.484;2024-02-28T02:39:04;5.80;99.90
12948;DHT22;6539;49.476;8.484;2024-02-28T02:41:50;5.80;99.90
12948;DHT22;6539;49.476;8.484;2024-02-28T02:44:38;5.80;99.90
12948;DHT22;6539;49.476;8.484;2024-02-28T02:47:27;5.80;99.90
12948;DHT22;6539;49.476;8.484;2024-02-28T02:50:16;5.70;99.90
12948;DHT22;6539;49.476;8.484;2024-02-28T02:53:03;5.70;99.90
12948;DHT22;6539;49.476;8.484;2024-02-28T02:55:49;5.70;99.90
12948;DHT22;6539;49.476;8.484;2024-02-28T02:58:35;5.60;99.90
12948;DHT22;6539;49.476;8.484;2024-02-28T03:01:21;5.70;99.90
12948;DHT22;6539;49.476;8.484;2024-02-28T03:04:07;5.70;99.90
12948;DHT22;6539;49.476;8.484;2024-02-28T03:06:53;5.60;99.90
12948;DHT22;6539;49.476;8.484;2024-02-28T03:09:42;5.60;99.90
12948;DHT22;6539;49.476;8.484;2024-02-28T03:12:29;5.50;99.90
12948;DHT22;6539;49.476;8.484;2024-02-28T03:15:17;5.60;99.90
12948;DHT22;6539;49.476;8.484;2024-02-28T03:18:03;5.50;99.90
12948;DHT22;6539;49.476;8.484;2024-02-28T03:20:52;5.50;99.90
12948;DHT22;6539;49.476;8.484;2024-02-28T03:23:38;5.40;99.90
12948;DHT22;6539;49.476;8.484;2024-02-28T03:26:24;5.40;99.90
12948;DHT22;6539;49.476;8.484;2024-02-28T03:29:10;5.40;99.90
12948;DHT22;6539;49.476;8.484;2024-02-28T03:31:58;5.40;99.90
12948;DHT22;6539;49.476;8.484;2024-02-28T03:34:46;5.40;99.90
12948;DHT22;6539;49.476;8.484;2024-02-28T03:37:34;5.40;99.90
12948;DHT22;6539;49.476;8.484;2024-02-28T03:40:20;5.40;99.90
12948;DHT22;6539;49.476;8.484;2024-02-28T03:43:06;5.30;99.90
12948;DHT22;6539;49.476;8.484;2024-02-28T03:45:55;5.30;99.90
12948;DHT22;6539;49.476;8.484;2024-02-28T03:48:43;5.30;99.90
12948;DHT22;6539;49.476;8.484;2024-02-28T03:51:39;5.30;99.90
12948;DHT22;6539;49.476;8.484;2024-02-28T03:54:26;5.20;99.90
12948;DHT22;6539;49.476;8.484;2024-02-28T03:57:13;5.20;99.90
12948;DHT22;6539;49.476;8.484;2024-02-28T04:00:01;5.20;99.90
12948;DHT22;6539;49.476;8.484;2024-02-28T04:02:48;5.20;99.90
12948;DHT22;6539;49.476;8.484;2024-02-28T04:05:34;5.20;99.90
12948;DHT22;6539;49.476;8.484;2024-02-28T04:08:20;5.10;99.90
12948;DHT22;6539;49.476;8.484;2024-02-28T04:11:06;5.10;99.90
12948;DHT22;6539;49.476;8.484;2024-02-28T04:13:53;5.10;99.90
12948;DHT22;6539;49.476;8.484;2024-02-28T04:16:45;5.10;99.90
12948;DHT22;6539;49.476;8.484;2024-02-28T04:19:36;5.00;99.90
12948;DHT22;6539;49.476;8.484;2024-02-28T04:22:23;5.00;99.90
12948;DHT22;6539;49.476;8.484;2024-02-28T04:25:09;5.00;99.90
12948;DHT22;6539;49.476;8.484;2024-02-28T04:27:55;4.90;99.90
12948;DHT22;6539;49.476;8.484;2024-02-28T04:30:42;4.90;99.90
12948;DHT22;6539;49.476;8.484;2024-02-28T04:33:31;4.90;99.90
12948;DHT22;6539;49.476;8.484;2024-02-28T04:36:18;4.90;99.90
12948;DHT22;6539;49.476;8.484;2024-02-28T04:39:07;4.90;99.90
12948;DHT22;6539;49.476;8.484;2024-02-28T04:41:55;4.90;99.90
12948;DHT22;6539;49.476;8.484;2024-02-28T04:44:44;4.80;99.90
12948;DHT22;6539;49.476;8.484;2024-02-28T04:47:33;4.80;99.90
12948;DHT22;6539;49.476;8.484;2024-02-28T04:50:22;4.80;99.90
12948;DHT22;6539;49.476;8.484;2024-02-28T04:53:10;4.80;99.90
12948;DHT22;6539;49.476;8.484;2024-02-28T04:55:59;4.80;99.90
12948;DHT22;6539;49.476;8.484;2024-02-28T04:58:48;4.80;99.90
12948;DHT22;6539;49.476;8.484;2024-02-28T05:01:36;4.80;99.90
12948;DHT22;6539;49.476;8.484;2024-02-28T05:04:25;4.80;99.90
12948;DHT22;6539;49.476;8.484;2024-02-28T05:07:11;4.70;99.90
12948;DHT22;6539;49.476;8.484;2024-02-28T05:09:57;4.70;99.90
12948;DHT22;6539;49.476;8.484;2024-02-28T05:12:43;4.70;99.90
12948;DHT22;6539;49.476;8.484;2024-02-28T05:15:34;4.80;99.90
12948;DHT22;6539;49.476;8.484;2024-02-28T05:18:22;4.70;99.90
12948;DHT22;6539;49.476;8.484;2024-02-28T05:21:11;4.70;99.90
12948;DHT22;6539;49.476;8.484;2024-02-28T05:23:58;4.70;99.90
12948;DHT22;6539;49.476;8.484;2024-02-28T05:26:46;4.70;99.90
12948;DHT22;6539;49.476;8.484;2024-02-28T05:29:32;4.70;99.90
12948;DHT22;6539;49.476;8.484;2024-02-28T05:32:21;4.80;99.90
12948;DHT22;6539;49.476;8.484;2024-02-28T05:35:07;4.80;99.90
12948;DHT22;6539;49.476;8.484;2024-02-28T05:37:56;4.70;99.90
12948;DHT22;6539;49.476;8.484;2024-02-28T05:40:42;4.70;99.90
12948;DHT22;6539;49.476;8.484;2024-02-28T05:43:28;4.60;99.90
12948;DHT22;6539;49.476;8.484;2024-02-28T05:46:15;4.60;99.90
12948;DHT22;6539;49.476;8.484;2024-02-28T05:49:07;4.60;99.90
12948;DHT22;6539;49.476;8.484;2024-02-28T05:51:55;4.50;99.90
12948;DHT22;6539;49.476;8.484;2024-02-28T05:54:41;4.50;99.90
12948;DHT22;6539;49.476;8.484;2024-02-28T05:57:30;4.50;99.90
12948;DHT22;6539;49.476;8.484;2024-02-28T06:00:16;4.50;99.90
12948;DHT22;6539;49.476;8.484;2024-02-28T06:03:05;4.50;99.90
12948;DHT22;6539;49.476;8.484;2024-02-28T06:05:56;4.40;99.90
12948;DHT22;6539;49.476;8.484;2024-02-28T06:08:46;4.40;99.90
12948;DHT22;6539;49.476;8.484;2024-02-28T06:11:34;4.50;99.90
12948;DHT22;6539;49.476;8.484;2024-02-28T06:14:21;4.40;99.90
12948;DHT22;6539;49.476;8.484;2024-02-28T06:17:07;4.40;99.90
12948;DHT22;6539;49.476;8.484;2024-02-28T06:19:53;4.40;99.90
12948;DHT22;6539;49.476;8.484;2024-02-28T06:22:43;4.40;99.90
12948;DHT22;6539;49.476;8.484;2024-02-28T06:25:29;4.40;99.90
12948;DHT22;6539;49.476;8.484;2024-02-28T06:28:15;4.40;99.90
12948;DHT22;6539;49.476;8.484;2024-02-28T06:31:02;4.50;99.90
12948;DHT22;6539;49.476;8.484;2024-02-28T06:33:48;4.50;99.90
12948;DHT22;6539;49.476;8.484;2024-02-28T06:36:36;4.50;99.90
12948;DHT22;6539;49.476;8.484;2024-02-28T06:39:23;4.50;99.90
12948;DHT22;6539;49.476;8.484;2024-02-28T06:42:09;4.50;99.90
12948;DHT22;6539;49.476;8.484;2024-02-28T06:44:55;4.60;99.90
12948;DHT22;6539;49.476;8.484;2024-02-28T06:47:41;4.60;99.90
12948;DHT22;6539;49.476;8.484;2024-02-28T06:50:30;4.60;99.90
12948;DHT22;6539;49.476;8.484;2024-02-28T06:53:16;4.60;99.90
12948;DHT22;6539;49.476;8.484;2024-02-28T06:56:07;4.60;99.90
12948;DHT22;6539;49.476;8.484;2024-02-28T06:58:53;4.60;99.90
12948;DHT22;6539;49.476;8.484;2024-02-28T07:01:39;4.60;99.90
12948;DHT22;6539;49.476;8.484;2024-02-28T07:04:25;4.60;99.90
12948;DHT22;6539;49.476;8.484;2024-02-28T07:07:14;4.60;99.90
12948;DHT22;6539;49.476;8.484;2024-02-28T07:10:02;4.60;99.90
12948;DHT22;6539;49.476;8.484;2024-02-28T07:12:52;4.60;99.90
12948;DHT22;6539;49.476;8.484;2024-02-28T07:15:38;4.60;99.90
12948;DHT22;6539;49.476;8.484;2024-02-28T07:18:28;4.70;99.90
12948;DHT22;6539;49.476;8.484;2024-02-28T07:21:15;4.80;99.90
12948;DHT22;6539;49.476;8.484;2024-02-28T07:24:03;4.80;99.90
12948;DHT22;6539;49.476;8.484;2024-02-28T07:26:50;4.90;99.90
12948;DHT22;6539;49.476;8.484;2024-02-28T07:29:37;5.00;99.90
12948;DHT22;6539;49.476;8.484;2024-02-28T07:32:23;5.10;99.90
12948;DHT22;6539;49.476;8.484;2024-02-28T07:35:12;5.00;99.90
12948;DHT22;6539;49.476;8.484;2024-02-28T07:37:58;5.10;99.90
12948;DHT22;6539;49.476;8.484;2024-02-28T07:40:44;5.10;99.90
12948;DHT22;6539;49.476;8.484;2024-02-28T07:43:30;5.00;99.90
12948;DHT22;6539;49.476;8.484;2024-02-28T07:46:24;5.10;99.90
12948;DHT22;6539;49.476;8.484;2024-02-28T07:49:10;5.20;99.90
12948;DHT22;6539;49.476;8.484;2024-02-28T07:51:56;5.20;99.90
12948;DHT22;6539;49.476;8.484;2024-02-28T07:54:45;5.30;99.90
12948;DHT22;6539;49.476;8.484;2024-02-28T07:57:36;5.30;99.90
12948;DHT22;6539;49.476;8.484;2024-02-28T08:00:24;5.40;99.90
12948;DHT22;6539;49.476;8.484;2024-02-28T08:03:11;5.50;99.90
12948;DHT22;6539;49.476;8.484;2024-02-28T08:05:59;5.50;99.90
12948;DHT22;6539;49.476;8.484;2024-02-28T08:08:45;5.50;99.90
12948;DHT22;6539;49.476;8.484;2024-02-28T08:11:34;5.50;99.90
12948;DHT22;6539;49.476;8.484;2024-02-28T08:14:20;5.50;99.90
12948;DHT22;6539;49.476;8.484;2024-02-28T08:17:07;5.50;99.90
12948;DHT22;6539;49.476;8.484;2024-02-28T08:19:56;5.60;99.90
12948;DHT22;6539;49.476;8.484;2024-02-28T08:22:45;5.60;99.90
12948;DHT22;6539;49.476;8.484;2024-02-28T08:25:36;5.60;99.90
12948;DHT22;6539;49.476;8.484;2024-02-28T08:28:26;5.70;99.90
12948;DHT22;6539;49.476;8.484;2024-02-28T08:31:16;5.80;99.90
12948;DHT22;6539;49.476;8.484;2024-02-28T08:34:03;5.70;99.90
12948;DHT22;6539;49.476;8.484;2024-02-28T08:36:55;5.80;99.90
12948;DHT22;6539;49.476;8.484;2024-02-28T08:39:43;5.90;99.90
12948;DHT22;6539;49.476;8.484;2024-02-28T08:42:32;6.00;99.90
12948;DHT22;6539;49.476;8.484;2024-02-28T08:45:18;6.10;99.90
12948;DHT22;6539;49.476;8.484;2024-02-28T08:48:05;6.20;99.90
12948;DHT22;6539;49.476;8.484;2024-02-28T08:50:52;6.20;99.90
12948;DHT22;6539;49.476;8.484;2024-02-28T08:53:40;6.30;99.90
12948;DHT22;6539;49.476;8.484;2024-02-28T08:56:26;6.40;99.90
12948;DHT22;6539;49.476;8.484;2024-02-28T08:59:12;6.40;99.90
12948;DHT22;6539;49.476;8.484;2024-02-28T09:02:02;6.40;99.90
12948;DHT22;6539;49.476;8.484;2024-02-28T09:04:49;6.40;99.90
12948;DHT22;6539;49.476;8.484;2024-02-28T09:07:39;6.50;99.90
12948;DHT22;6539;49.476;8.484;2024-02-28T09:10:28;6.50;99.90
12948;DHT22;6539;49.476;8.484;2024-02-28T09:13:17;6.50;99.90
12948;DHT22;6539;49.476;8.484;2024-02-28T09:16:03;6.50;99.90
12948;DHT22;6539;49.476;8.484;2024-02-28T09:18:50;6.60;99.90
12948;DHT22;6539;49.476;8.484;2024-02-28T09:21:36;6.70;99.90
12948;DHT22;6539;49.476;8.484;2024-02-28T09:24:30;6.90;99.90
12948;DHT22;6539;49.476;8.484;2024-02-28T09:27:26;6.80;99.90
12948;DHT22;6539;49.476;8.484;2024-02-28T09:30:12;7.00;99.90
12948;DHT22;6539;49.476;8.484;2024-02-28T09:33:03;7.10;99.90
12948;DHT22;6539;49.476;8.484;2024-02-28T09:35:50;7.30;99.90
12948;DHT22;6539;49.476;8.484;2024-02-28T09:38:38;7.40;99.90
12948;DHT22;6539;49.476;8.484;2024-02-28T09:41:24;7.50;99.90
12948;DHT22;6539;49.476;8.484;2024-02-28T09:44:14;7.60;99.90
12948;DHT22;6539;49.476;8.484;2024-02-28T09:47:06;7.90;99.90
12948;DHT22;6539;49.476;8.484;2024-02-28T09:49:53;8.00;99.90
12948;DHT22;6539;49.476;8.484;2024-02-28T09:52:44;8.40;99.90
12948;DHT22;6539;49.476;8.484;2024-02-28T09:55:30;8.50;99.90
12948;DHT22;6539;49.476;8.484;2024-02-28T09:58:18;8.50;99.90
12948;DHT22;6539;49.476;8.484;2024-02-28T10:01:11;8.80;99.90
12948;DHT22;6539;49.476;8.484;2024-02-28T10:04:01;8.90;99.90
12948;DHT22;6539;49.476;8.484;2024-02-28T10:06:48;8.80;99.90
12948;DHT22;6539;49.476;8.484;2024-02-28T10:09:35;8.80;99.90
12948;DHT22;6539;49.476;8.484;2024-02-28T10:12:21;8.80;99.90
12948;DHT22;6539;49.476;8.484;2024-02-28T10:15:10;9.00;99.90
12948;DHT22;6539;49.476;8.484;2024-02-28T10:17:57;9.00;99.90
12948;DHT22;6539;49.476;8.484;2024-02-28T10:20:43;9.20;99.90
12948;DHT22;6539;49.476;8.484;2024-02-28T10:23:29;9.10;99.90
12948;DHT22;6539;49.476;8.484;2024-02-28T10:26:17;9.20;99.90
12948;DHT22;6539;49.476;8.484;2024-02-28T10:29:04;9.40;99.90
12948;DHT22;6539;49.476;8.484;2024-02-28T10:32:00;9.80;99.90
12948;DHT22;6539;49.476;8.484;2024-02-28T10:34:47;10.10;99.90
12948;DHT22;6539;49.476;8.484;2024-02-28T10:37:36;10.20;99.90
12948;DHT22;6539;49.476;8.484;2024-02-28T10:40:25;10.30;99.90
12948;DHT22;6539;49.476;8.484;2024-02-28T10:43:16;10.40;99.90
12948;DHT22;6539;49.476;8.484;2024-02-28T10:46:09;10.90;99.90
12948;DHT22;6539;49.476;8.484;2024-02-28T10:49:02;11.00;99.90
12948;DHT22;6539;49.476;8.484;2024-02-28T10:51:49;11.50;99.90
12948;DHT22;6539;49.476;8.484;2024-02-28T10:54:43;11.80;99.90
12948;DHT22;6539;49.476;8.484;2024-02-28T10:57:36;12.40;99.90
12948;DHT22;6539;49.476;8.484;2024-02-28T11:00:23;12.80;99.90
12948;DHT22;6539;49.476;8.484;2024-02-28T11:03:09;13.60;99.90
12948;DHT22;6539;49.476;8.484;2024-02-28T11:05:58;13.30;99.90
12948;DHT22;6539;49.476;8.484;2024-02-28T11:08:46;13.60;99.90
12948;DHT22;6539;49.476;8.484;2024-02-28T11:11:41;13.70;99.90
12948;DHT22;6539;49.476;8.484;2024-02-28T11:14:29;13.40;99.90
12948;DHT22;6539;49.476;8.484;2024-02-28T11:17:29;13.20;99.90
12948;DHT22;6539;49.476;8.484;2024-02-28T11:20:21;13.20;99.90
12948;DHT22;6539;49.476;8.484;2024-02-28T11:23:17;13.80;99.90
12948;DHT22;6539;49.476;8.484;2024-02-28T11:26:08;14.80;99.90
12948;DHT22;6539;49.476;8.484;2024-02-28T11:28:56;14.50;99.90
12948;DHT22;6539;49.476;8.484;2024-02-28T11:31:43;14.90;99.90
12948;DHT22;6539;49.476;8.484;2024-02-28T11:34:33;15.10;99.90
12948;DHT22;6539;49.476;8.484;2024-02-28T11:37:20;15.40;99.90
12948;DHT22;6539;49.476;8.484;2024-02-28T11:40:08;16.50;99.90
12948;DHT22;6539;49.476;8.484;2024-02-28T11:42:57;17.00;99.90
12948;DHT22;6539;49.476;8.484;2024-02-28T11:45:49;16.80;99.90
12948;DHT22;6539;49.476;8.484;2024-02-28T11:48:35;16.80;99.90
12948;DHT22;6539;49.476;8.484;2024-02-28T11:51:22;16.80;99.90
12948;DHT22;6539;49.476;8.484;2024-02-28T11:54:09;16.40;99.90
12948;DHT22;6539;49.476;8.484;2024-02-28T11:56:59;15.80;99.90
12948;DHT22;6539;49.476;8.484;2024-02-28T11:59:49;15.70;99.90
12948;DHT22;6539;49.476;8.484;2024-02-28T12:02:36;14.70;99.90
12948;DHT22;6539;49.476;8.484;2024-02-28T12:05:25;14.40;99.90
12948;DHT22;6539;49.476;8.484;2024-02-28T12:08:11;14.10;99.90
12948;DHT22;6539;49.476;8.484;2024-02-28T12:11:06;13.50;99.90
12948;DHT22;6539;49.476;8.484;2024-02-28T12:13:54;13.20;99.90
12948;DHT22;6539;49.476;8.484;2024-02-28T12:16:41;13.50;99.90
12948;DHT22;6539;49.476;8.484;2024-02-28T12:19:30;14.00;99.90
12948;DHT22;6539;49.476;8.484;2024-02-28T12:22:16;14.20;99.90
12948;DHT22;6539;49.476;8.484;2024-02-28T12:25:02;14.30;99.90
12948;DHT22;6539;49.476;8.484;2024-02-28T12:27:50;14.50;99.90
12948;DHT22;6539;49.476;8.484;2024-02-28T12:30:40;15.00;99.90
12948;DHT22;6539;49.476;8.484;2024-02-28T12:33:30;14.90;99.90
12948;DHT22;6539;49.476;8.484;2024-02-28T12:36:19;15.30;99.90
12948;DHT22;6539;49.476;8.484;2024-02-28T12:39:05;16.70;99.90
12948;DHT22;6539;49.476;8.484;2024-02-28T12:41:51;17.70;99.90
12948;DHT22;6539;49.476;8.484;2024-02-28T12:44:37;17.10;99.90
12948;DHT22;6539;49.476;8.484;2024-02-28T12:47:26;17.80;99.90
12948;DHT22;6539;49.476;8.484;2024-02-28T12:50:12;17.40;99.90
12948;DHT22;6539;49.476;8.484;2024-02-28T12:53:01;17.40;99.90
12948;DHT22;6539;49.476;8.484;2024-02-28T12:55:51;17.30;99.90
12948;DHT22;6539;49.476;8.484;2024-02-28T12:58:37;17.10;99.90
12948;DHT22;6539;49.476;8.484;2024-02-28T13:01:24;16.50;99.90
12948;DHT22;6539;49.476;8.484;2024-02-28T13:04:12;17.20;99.90
12948;DHT22;6539;49.476;8.484;2024-02-28T13:07:01;17.50;99.90
12948;DHT22;6539;49.476;8.484;2024-02-28T13:09:50;17.10;99.90
12948;DHT22;6539;49.476;8.484;2024-02-28T13:12:37;16.30;99.90
12948;DHT22;6539;49.476;8.484;2024-02-28T13:15:29;16.20;99.90
12948;DHT22;6539;49.476;8.484;2024-02-28T13:18:20;16.70;99.90
12948;DHT22;6539;49.476;8.484;2024-02-28T13:21:07;17.10;99.90
12948;DHT22;6539;49.476;8.484;2024-02-28T13:23:53;18.00;99.90
12948;DHT22;6539;49.476;8.484;2024-02-28T13:26:42;18.50;99.90
12948;DHT22;6539;49.476;8.484;2024-02-28T13:29:31;18.70;99.80
12948;DHT22;6539;49.476;8.484;2024-02-28T13:32:20;19.30;99.00
12948;DHT22;6539;49.476;8.484;2024-02-28T13:35:07;18.90;97.70
12948;DHT22;6539;49.476;8.484;2024-02-28T13:37:56;18.40;98.60
12948;DHT22;6539;49.476;8.484;2024-02-28T13:40:51;18.50;98.30
12948;DHT22;6539;49.476;8.484;2024-02-28T13:43:37;18.80;97.80
12948;DHT22;6539;49.476;8.484;2024-02-28T13:46:23;18.70;97.10
12948;DHT22;6539;49.476;8.484;2024-02-28T13:49:10;19.30;97.10
12948;DHT22;6539;49.476;8.484;2024-02-28T13:51:56;19.20;96.40
12948;DHT22;6539;49.476;8.484;2024-02-28T13:54:42;18.90;95.90
12948;DHT22;6539;49.476;8.484;2024-02-28T13:57:28;18.20;96.30
12948;DHT22;6539;49.476;8.484;2024-02-28T14:00:17;18.40;96.00
12948;DHT22;6539;49.476;8.484;2024-02-28T14:03:04;18.70;95.70
12948;DHT22;6539;49.476;8.484;2024-02-28T14:05:54;19.10;95.20
12948;DHT22;6539;49.476;8.484;2024-02-28T14:08:42;19.60;94.20
12948;DHT22;6539;49.476;8.484;2024-02-28T14:11:28;19.20;94.20
12948;DHT22;6539;49.476;8.484;2024-02-28T14:14:15;19.00;94.00
12948;DHT22;6539;49.476;8.484;2024-02-28T14:17:03;19.00;94.00
12948;DHT22;6539;49.476;8.484;2024-02-28T14:19:50;18.50;94.30
12948;DHT22;6539;49.476;8.484;2024-02-28T14:22:36;18.20;94.70
12948;DHT22;6539;49.476;8.484;2024-02-28T14:25:22;18.10;94.70
12948;DHT22;6539;49.476;8.484;2024-02-28T14:28:13;18.10;94.60
12948;DHT22;6539;49.476;8.484;2024-02-28T14:31:00;17.40;95.20
12948;DHT22;6539;49.476;8.484;2024-02-28T14:33:46;17.00;95.50
12948;DHT22;6539;49.476;8.484;2024-02-28T14:36:32;16.40;96.20
12948;DHT22;6539;49.476;8.484;2024-02-28T14:39:21;15.80;96.70
12948;DHT22;6539;49.476;8.484;2024-02-28T14:42:10;15.20;97.70
12948;DHT22;6539;49.476;8.484;2024-02-28T14:44:57;14.70;98.40
12948;DHT22;6539;49.476;8.484;2024-02-28T14:47:45;14.50;98.70
12948;DHT22;6539;49.476;8.484;2024-02-28T14:50:34;14.50;98.90
12948;DHT22;6539;49.476;8.484;2024-02-28T14:53:20;14.30;99.30
12948;DHT22;6539;49.476;8.484;2024-02-28T14:56:09;14.00;99.90
12948;DHT22;6539;49.476;8.484;2024-02-28T14:59:00;13.90;99.90
12948;DHT22;6539;49.476;8.484;2024-02-28T15:01:52;13.70;99.90
12948;DHT22;6539;49.476;8.484;2024-02-28T15:04:40;13.70;99.90
12948;DHT22;6539;49.476;8.484;2024-02-28T15:07:26;13.70;99.90
12948;DHT22;6539;49.476;8.484;2024-02-28T15:10:13;13.70;99.90
12948;DHT22;6539;49.476;8.484;2024-02-28T15:12:59;13.60;99.80
12948;DHT22;6539;49.476;8.484;2024-02-28T15:15:47;13.60;99.90
12948;DHT22;6539;49.476;8.484;2024-02-28T15:18:34;13.60;99.90
12948;DHT22;6539;49.476;8.484;2024-02-28T15:21:22;13.50;99.90
12948;DHT22;6539;49.476;8.484;2024-02-28T15:24:13;13.50;99.90
12948;DHT22;6539;49.476;8.484;2024-02-28T15:27:00;13.30;99.20
12948;DHT22;6539;49.476;8.484;2024-02-28T15:29:46;13.30;99.30
12948;DHT22;6539;49.476;8.484;2024-02-28T15:32:32;13.30;99.50
12948;DHT22;6539;49.476;8.484;2024-02-28T15:35:18;13.40;99.90
12948;DHT22;6539;49.476;8.484;2024-02-28T15:38:08;13.30;99.40
12948;DHT22;6539;49.476;8.484;2024-02-28T15:40:54;13.20;99.50
12948;DHT22;6539;49.476;8.484;2024-02-28T15:43:43;13.20;99.70
12948;DHT22;6539;49.476;8.484;2024-02-28T15:46:30;13.20;99.90
12948;DHT22;6539;49.476;8.484;2024-02-28T15:49:18;13.00;99.90
12948;DHT22;6539;49.476;8.484;2024-02-28T15:52:08;13.00;99.90
12948;DHT22;6539;49.476;8.484;2024-02-28T15:54:54;12.90;99.90
12948;DHT22;6539;49.476;8.484;2024-02-28T15:57:43;13.00;99.90
12948;DHT22;6539;49.476;8.484;2024-02-28T16:00:29;12.90;99.90
12948;DHT22;6539;49.476;8.484;2024-02-28T16:03:18;12.80;99.90
12948;DHT22;6539;49.476;8.484;2024-02-28T16:06:07;12.70;99.90
12948;DHT22;6539;49.476;8.484;2024-02-28T16:08:55;12.60;99.90
12948;DHT22;6539;49.476;8.484;2024-02-28T16:11:42;12.60;99.90
12948;DHT22;6539;49.476;8.484;2024-02-28T16:14:28;12.50;99.90
12948;DHT22;6539;49.476;8.484;2024-02-28T16:17:15;12.40;99.90
12948;DHT22;6539;49.476;8.484;2024-02-28T16:20:01;12.30;99.90
12948;DHT22;6539;49.476;8.484;2024-02-28T16:22:48;12.20;99.90
12948;DHT22;6539;49.476;8.484;2024-02-28T16:25:34;12.10;99.90
12948;DHT22;6539;49.476;8.484;2024-02-28T16:28:24;12.10;99.90
12948;DHT22;6539;49.476;8.484;2024-02-28T16:31:12;12.00;99.90
12948;DHT22;6539;49.476;8.484;2024-02-28T16:33:59;11.90;99.90
12948;DHT22;6539;49.476;8.484;2024-02-28T16:36:45;11.80;99.90
12948;DHT22;6539;49.476;8.484;2024-02-28T16:39:32;11.70;99.90
12948;DHT22;6539;49.476;8.484;2024-02-28T16:42:18;11.70;99.90
12948;DHT22;6539;49.476;8.484;2024-02-28T16:45:05;11.60;99.90
12948;DHT22;6539;49.476;8.484;2024-02-28T16:47:54;11.50;99.90
12948;DHT22;6539;49.476;8.484;2024-02-28T16:50:42;11.40;99.90
12948;DHT22;6539;49.476;8.484;2024-02-28T16:53:34;11.40;99.90
12948;DHT22;6539;49.476;8.484;2024-02-28T16:56:23;11.20;99.90
12948;DHT22;6539;49.476;8.484;2024-02-28T16:59:18;11.20;99.90
12948;DHT22;6539;49.476;8.484;2024-02-28T17:02:04;11.10;99.90
12948;DHT22;6539;49.476;8.484;2024-02-28T17:04:55;11.00;99.90
12948;DHT22;6539;49.476;8.484;2024-02-28T17:07:41;11.00;99.90
12948;DHT22;6539;49.476;8.484;2024-02-28T17:10:27;10.90;99.90
12948;DHT22;6539;49.476;8.484;2024-02-28T17:13:13;10.90;99.90
12948;DHT22;6539;49.476;8.484;2024-02-28T17:15:59;10.80;99.90
12948;DHT22;6539;49.476;8.484;2024-02-28T17:18:48;10.80;99.90
12948;DHT22;6539;49.476;8.484;2024-02-28T17:21:34;10.70;99.90
12948;DHT22;6539;49.476;8.484;2024-02-28T17:24:21;10.70;99.90
12948;DHT22;6539;49.476;8.484;2024-02-28T17:27:07;10.60;99.90
12948;DHT22;6539;49.476;8.484;2024-02-28T17:29:53;10.60;99.90
12948;DHT22;6539;49.476;8.484;2024-02-28T17:32:39;10.50;99.90
12948;DHT22;6539;49.476;8.484;2024-02-28T17:35:25;10.50;99.90
12948;DHT22;6539;49.476;8.484;2024-02-28T17:38:11;10.50;99.90
12948;DHT22;6539;49.476;8.484;2024-02-28T17:41:00;10.50;99.90
12948;DHT22;6539;49.476;8.484;2024-02-28T17:43:53;10.40;99.90
12948;DHT22;6539;49.476;8.484;2024-02-28T17:46:42;10.50;99.90
12948;DHT22;6539;49.476;8.484;2024-02-28T17:49:28;10.50;99.90
12948;DHT22;6539;49.476;8.484;2024-02-28T17:52:15;10.40;99.90
12948;DHT22;6539;49.476;8.484;2024-02-28T17:55:01;10.40;99.90
12948;DHT22;6539;49.476;8.484;2024-02-28T17:57:48;10.30;99.90
12948;DHT22;6539;49.476;8.484;2024-02-28T18:00:38;10.30;99.90
12948;DHT22;6539;49.476;8.484;2024-02-28T18:03:29;10.30;99.90
12948;DHT22;6539;49.476;8.484;2024-02-28T18:06:17;10.20;99.90
12948;DHT22;6539;49.476;8.484;2024-02-28T18:09:04;10.20;99.90